Airfield :
LOGIN :

Register | Disclaimer

   EN    FR    IT 

 










Legend :    VFR   Marginal VFR   IFR   Intensive IFR   Very Intensive IFR
Visi :
Ceiling :
>= 8 km
>= 3000ft
5 to 8 km
1000 to 3000 ft
1500m to 5 km
500 to 1000 ft
800 to 1500m
200 to 500 ft
< 800m
< 200 ft
Symbols :   Thunderstorms  Fog  Heavy snow  Heavy precipitations  Wind > 20 kt
SIGMETs :     Misc.  Thunderstorms  Icing  Turbulence  Mountain Waves  Volcanic Ashes






- Airport Elevation : 1245 ft
- IATA code : AJR


ESNX - Arvidsjaur

CURRENT METAR :
  • 161220Z 18006KT 9999 BKN036 18/11 Q1015

EXPIRED METARs :
  • 161150Z AUTO 17008KT 130V190 9999 SCT033/// 19/12 Q1015
  • 161120Z 16007KT 130V190 9999 BKN025 19/13 Q1015
  • 161050Z AUTO 15007KT 120V190 9999 BKN028/// BKN200/// 19/12 Q1015
  • 161020Z AUTO 13008KT 9999 FEW025/// SCT041/// BKN053/// 19/13 Q1015
  • 160950Z 15009KT 9999 -SHRA BKN025TCU 17/13 Q1015 REDZ
  • 160920Z 15009KT 120V180 9999 -DZ BKN022 17/14 Q1015
  • 160850Z 13007KT 9999 BKN024 18/12 Q1015
  • 160820Z 15007KT 9999 BKN021 17/12 Q1015
  • 160750Z 15006KT 9999 BKN018 18/14 Q1015

TAF TAF ESNX
Valid from the 16 at 12:00 until the 16 at 15:00 UTC


161130Z 1612/1615 15006KT 9999 BKN030
PROB40 1612/1615 SCT040TCU



MET'MAP, your aeronautical weather chart ! - Copyright ORBIFLY December 2007 - Disclaimer

ORBIFLY MET'MAP TEAM :

Programming & Development : Alexandra Zaïnal
Original concept : Baudouin d'Aumeries
Technical & hardware support : Manuel Goepfert
Assistance : Marc-Olivier Méhu




SOURCES & CREDITS :

   NOAA